White Bear Lake, MN

7:26 AM CDT on September 16, 2014 (GMT -0500)
4637 Carolyn Lane, WBL,MN | Change Station
CLOSE
Current Station
Personal Weather Station
Location: White Bear Lake, MN
Elevation: 941 ft
Nearby Weather Stations

Elev 941 ft 45.08 °N, 93.03 °W | Updated 5 minutes ago

Clear
Clear
39.2 °F
Feels Like 39 °F
N
0.0
Wind Variable Wind from SE

Today
High -- | Low -- °F
--% Chance of Precip.
Yesterday
High -- | Low -- °F
Precip. -- in
6:51 AM 7:20 PM
Last Quarter, 46% visible
Pressure 30.20 in
Visibility 5.0 miles
Clouds Clear
Windchill 39 °F
Dew Point 37 °F
Humidity 93%
Rainfall 0.00 in
Snow Depth Not available.
UV 0 out of 12
Pollen 4.20 out of 12
Ozone Good
PM2.5 Good
Flu Activity Not available.
METAR K21D 161211Z AUTO 18003KT 5SM BR CLR 03/03 A3020 RMK AO2

More Conditions Fewer Conditions

Pressure 30.20 in
Visibility 5.0 miles
Clouds Clear
Windchill 39 °F
Dew Point 37 °F
Humidity 93%
Rainfall 0.00 in
Snow Depth Not available.
UV 0 out of 12
Pollen 4.20 out of 12
Ozone Good
PM2.5 Good
Flu Activity Not available.
METAR K21D 161211Z AUTO 18003KT 5SM BR CLR 03/03 A3020 RMK AO2

More Conditions Fewer Conditions

10-Day Weather Forecast

Almanac

Astronomy

Sep. 16, 2014 Rise Set
Actual Time 6:51 AM CDT 7:20 PM CDT
Civil Twilight 6:22 AM CDT 7:50 PM CDT
Nautical Twilight 5:47 AM CDT 8:25 PM CDT
Astronomical Twilight 5:11 AM CDT 9:01 PM CDT
Moon No Moon Rise 2:56 PM CDT
Length of Visible Light 13h 28m
Length of Day
12h 29m
Tomorrow will be 3m 7s shorter.
Last Quarter, 46% of the Moon is Illuminated
Today
Last Quarter
Sep 24
New
Oct 1
First Quarter
Oct 8
Full
Oct 15
Last Quarter

Today's Extremes

State Highs State Lows

Community

WunderPhotos

Upload Photos

1,753,754 photos uploaded!

Nearby

Air Quality

  Air Quality AQ Index Pollutant
Yesterday Good
OZONE
Yesterday Good
PM2.5
Current Good
PM2.5
Current Good
OZONE
Tuesday Good
OZONE
Tuesday Good
PM2.5
Wednesday Good
PM2.5
Wednesday Good
OZONE
Thursday Moderate
PM2.5
Thursday Good
OZONE
Friday Moderate
PM2.5
Friday Good
OZONE
Saturday Good
OZONE
Saturday Good
PM2.5

Snow Depth

Station Depth Elevation
No new snow has been reported.

Earthquake Activity

City Distance Mag. Time & Date
No recent earthquake activity has been reported nearby.
Minimum magnitude displayed is 2.5.

Coastal Water Temperatures

Place Temperature
No Stations Reporting

Nearby Weather Stations